Time;durP1;ratioP1;P1;durP2;ratioP2;P2;SDS_P1;SDS_P2;PMS_P1;PMS_P2;Temp;Humidity;BMP_temperature;BMP_pressure;BME280_temperature;BME280_humidity;BME280_pressure;Samples;Min_cycle;Max_cycle;Signal;HPM_P1;HPM_P2
2023/05/23 00:01:57;;;;;;;10.27;4.20;;;23.00;51.80;;;;;;4939087;29;20031;-79
2023/05/23 00:04:25;;;;;;;10.93;4.07;;;23.00;52.00;;;;;;4956296;29;20035;-80
2023/05/23 00:06:52;;;;;;;11.23;4.20;;;23.00;51.90;;;;;;4907576;29;20070;-79
2023/05/23 00:09:18;;;;;;;9.63;4.10;;;23.00;52.00;;;;;;4939149;29;20085;-79
2023/05/23 00:11:44;;;;;;;11.10;3.70;;;23.00;52.50;;;;;;4906975;29;20513;-79
2023/05/23 00:14:14;;;;;;;10.82;3.97;;;23.00;52.00;;;;;;4919790;29;20035;-79
2023/05/23 00:16:44;;;;;;;9.13;3.80;;;23.00;52.00;;;;;;4935535;29;20031;-80
2023/05/23 00:19:13;;;;;;;6.40;3.35;;;23.00;52.10;;;;;;4903872;29;20040;-78
2023/05/23 00:21:40;;;;;;;19.00;3.70;;;23.00;52.10;;;;;;4951112;29;20505;-79
2023/05/23 00:27:59;;;;;;;8.35;3.72;;;23.00;52.20;;;;;;4945894;29;20050;-80
2023/05/23 00:30:27;;;;;;;8.27;3.33;;;23.00;52.30;;;;;;4923272;29;20035;-80
2023/05/23 00:33:32;;;;;;;8.57;3.58;;;23.00;52.20;;;;;;4943552;29;20054;-80
2023/05/23 00:36:01;;;;;;;9.68;3.35;;;23.00;52.40;;;;;;4938212;29;20019;-80
2023/05/23 00:38:27;;;;;;;11.55;3.55;;;23.00;52.30;;;;;;4921523;29;20047;-78
2023/05/23 00:41:09;;;;;;;12.18;3.55;;;23.00;52.40;;;;;;4953873;28;20031;-79
2023/05/23 00:43:36;;;;;;;6.28;3.05;;;23.00;52.40;;;;;;4954503;29;20035;-79
2023/05/23 00:46:03;;;;;;;7.35;3.15;;;23.00;52.40;;;;;;4938004;29;20059;-79
2023/05/23 00:48:33;;;;;;;7.18;3.35;;;23.00;52.40;;;;;;4922664;29;20442;-79
2023/05/23 00:51:15;;;;;;;7.28;3.13;;;23.00;52.50;;;;;;4937787;28;20035;-79
2023/05/23 00:54:59;;;;;;;8.82;3.20;;;23.00;52.50;;;;;;4955877;29;20047;-79
2023/05/23 00:57:25;;;;;;;5.63;2.75;;;23.00;52.50;;;;;;4938476;29;20035;-80
2023/05/23 00:59:52;;;;;;;6.22;3.05;;;23.00;52.50;;;;;;4938046;29;20042;-79
2023/05/23 01:02:20;;;;;;;7.35;2.97;;;23.00;52.60;;;;;;4937945;29;20039;-79
2023/05/23 01:04:53;;;;;;;6.32;3.10;;;23.00;52.60;;;;;;4938923;29;20055;-79
2023/05/23 01:07:20;;;;;;;11.75;3.58;;;23.00;52.60;;;;;;4937248;29;20497;-79
2023/05/23 01:09:46;;;;;;;8.57;3.33;;;23.00;52.60;;;;;;4955379;29;20118;-80
2023/05/23 01:12:24;;;;;;;6.75;3.00;;;23.00;52.70;;;;;;4937595;29;20512;-79
2023/05/23 01:15:07;;;;;;;7.10;3.20;;;23.00;52.60;;;;;;4953824;29;20172;-79
2023/05/23 01:18:02;;;;;;;8.13;3.60;;;23.00;52.60;;;;;;4953268;29;20023;-79
2023/05/23 01:20:32;;;;;;;8.13;3.10;;;23.00;52.70;;;;;;4969724;28;20031;-79
2023/05/23 01:23:05;;;;;;;7.70;3.22;;;23.00;52.70;;;;;;4937496;29;20102;-80
2023/05/23 01:25:48;;;;;;;4.68;2.88;;;23.00;52.80;;;;;;4937583;29;20031;-79
2023/05/23 01:28:17;;;;;;;6.50;3.35;;;23.00;52.80;;;;;;4953826;29;20023;-79
2023/05/23 01:30:45;;;;;;;6.60;3.20;;;23.00;52.80;;;;;;4937213;28;20504;-80
2023/05/23 01:33:15;;;;;;;11.98;3.33;;;23.00;52.80;;;;;;4937421;29;20106;-79
2023/05/23 01:35:42;;;;;;;;;;;23.00;53.60;;;;;;4953930;29;20114;-79
2023/05/23 01:38:08;;;;;;;5.28;3.20;;;23.00;53.00;;;;;;4937078;29;19997;-80
2023/05/23 01:40:34;;;;;;;5.68;3.33;;;23.00;53.00;;;;;;4936839;29;20065;-80
2023/05/23 01:43:01;;;;;;;4.22;2.72;;;23.00;53.00;;;;;;4921468;29;20082;-80
2023/05/23 01:45:28;;;;;;;11.18;3.10;;;23.00;53.10;;;;;;4937245;29;20027;-80
2023/05/23 01:47:56;;;;;;;7.82;3.17;;;23.00;53.10;;;;;;4937118;29;20458;-80
2023/05/23 01:50:23;;;;;;;12.18;3.00;;;23.00;53.20;;;;;;4936752;29;20027;-80
2023/05/23 01:52:49;;;;;;;7.78;3.35;;;23.00;53.20;;;;;;4953189;29;20101;-80
2023/05/23 01:55:21;;;;;;;8.23;3.00;;;23.00;53.30;;;;;;4937127;29;20067;-79
2023/05/23 01:57:50;;;;;;;5.18;3.13;;;23.00;53.10;;;;;;4952516;29;20481;-80
2023/05/23 02:00:17;;;;;;;4.60;2.80;;;23.00;53.30;;;;;;4936376;29;20023;-80
2023/05/23 02:02:46;;;;;;;7.00;3.10;;;23.00;53.20;;;;;;4952648;28;20568;-79
2023/05/23 02:05:12;;;;;;;12.15;3.13;;;23.00;53.30;;;;;;4937375;29;20035;-80
2023/05/23 02:07:38;;;;;;;8.13;2.78;;;23.00;53.30;;;;;;4937158;29;20031;-80
2023/05/23 02:10:08;;;;;;;6.18;3.20;;;23.00;53.30;;;;;;4920997;29;20502;-80
2023/05/23 02:12:34;;;;;;;7.72;3.40;;;23.00;53.30;;;;;;4937150;29;20045;-79
2023/05/23 02:15:00;;;;;;;7.88;3.30;;;23.00;53.30;;;;;;4952153;29;20035;-80
2023/05/23 02:17:26;;;;;;;5.53;2.65;;;23.00;53.30;;;;;;4936091;29;20127;-80
2023/05/23 02:19:52;;;;;;;6.70;2.70;;;23.00;53.30;;;;;;4936630;29;20127;-82
2023/05/23 02:22:22;;;;;;;6.43;2.80;;;23.00;53.90;;;;;;4936970;29;20560;-81
2023/05/23 02:24:49;;;;;;;5.53;2.65;;;23.00;53.40;;;;;;4937018;29;20486;-81
2023/05/23 02:27:15;;;;;;;6.85;3.42;;;23.00;53.40;;;;;;4936764;29;20046;-80
2023/05/23 02:29:40;;;;;;;6.88;2.90;;;23.00;53.40;;;;;;4920820;29;20039;-81
2023/05/23 02:32:06;;;;;;;3.63;2.17;;;23.00;53.50;;;;;;4936951;29;20034;-81
2023/05/23 02:34:32;;;;;;;5.13;2.80;;;23.00;53.50;;;;;;4936498;29;20517;-80
2023/05/23 02:36:58;;;;;;;5.95;3.00;;;23.00;53.50;;;;;;4952321;28;20024;-76
2023/05/23 02:39:25;;;;;;;12.45;3.25;;;23.00;53.60;;;;;;4952534;29;20037;-75
2023/05/23 02:41:51;;;;;;;10.07;2.97;;;23.00;53.50;;;;;;4936626;29;20122;-75
2023/05/23 02:44:18;;;;;;;7.97;2.80;;;23.00;53.40;;;;;;4936480;29;20505;-75
2023/05/23 02:46:45;;;;;;;4.90;2.78;;;23.00;53.20;;;;;;4936612;29;20106;-75
2023/05/23 02:49:11;;;;;;;6.57;3.00;;;23.00;53.20;;;;;;4952731;29;20044;-76
2023/05/23 02:51:37;;;;;;;9.02;2.97;;;23.00;53.40;;;;;;4937159;29;20069;-76
2023/05/23 02:54:02;;;;;;;10.15;3.20;;;22.90;53.30;;;;;;4937419;29;20062;-75
2023/05/23 02:56:30;;;;;;;10.25;3.03;;;22.90;53.30;;;;;;4936973;29;20031;-75
2023/05/23 02:58:56;;;;;;;9.02;3.08;;;22.90;53.20;;;;;;4954386;28;20389;-75
2023/05/23 03:01:22;;;;;;;10.60;3.33;;;22.90;53.30;;;;;;4955270;28;20027;-75
2023/05/23 03:03:48;;;;;;;5.97;3.15;;;22.90;53.00;;;;;;4942173;29;20038;-77
2023/05/23 03:06:15;;;;;;;5.25;3.10;;;22.90;53.00;;;;;;4942006;29;20023;-76
2023/05/23 03:08:41;;;;;;;7.03;3.40;;;22.90;53.10;;;;;;4957731;29;20015;-75
2023/05/23 03:11:08;;;;;;;6.40;3.25;;;22.90;52.90;;;;;;4963286;28;20054;-76
2023/05/23 03:13:37;;;;;;;6.75;3.00;;;22.90;52.80;;;;;;4980686;28;20074;-75
2023/05/23 03:16:02;;;;;;;6.23;3.37;;;22.90;52.70;;;;;;4964391;29;20031;-75
2023/05/23 03:18:28;;;;;;;8.75;3.15;;;22.90;52.50;;;;;;4959913;29;20754;-75
2023/05/23 03:20:55;;;;;;;7.03;3.40;;;22.90;52.30;;;;;;4944872;28;20094;-75
2023/05/23 03:23:22;;;;;;;9.13;3.53;;;22.90;52.30;;;;;;4962469;29;20050;-75
2023/05/23 03:25:48;;;;;;;7.20;3.63;;;22.90;52.00;;;;;;4943238;29;20031;-76
2023/05/23 03:28:14;;;;;;;8.18;3.67;;;22.90;51.80;;;;;;4939819;29;20038;-76
2023/05/23 03:30:40;;;;;;;6.05;3.33;;;22.90;52.10;;;;;;4957284;28;20032;-75
2023/05/23 03:33:06;;;;;;;7.63;3.38;;;22.90;52.10;;;;;;4940315;29;20031;-76
2023/05/23 03:35:33;;;;;;;6.78;3.20;;;22.90;51.90;;;;;;4939463;29;20023;-75
2023/05/23 03:37:59;;;;;;;6.45;3.60;;;22.90;51.80;;;;;;4938779;29;20031;-75
2023/05/23 03:40:24;;;;;;;6.55;3.60;;;22.90;52.00;;;;;;4938971;29;20114;-76
2023/05/23 03:43:04;;;;;;;8.88;3.55;;;22.90;52.00;;;;;;4956372;28;20375;-75
2023/05/23 03:45:31;;;;;;;7.22;4.00;;;22.90;51.90;;;;;;4956435;28;20039;-76
2023/05/23 03:47:58;;;;;;;9.50;3.80;;;22.90;51.70;;;;;;4970655;28;20038;-76
2023/05/23 03:50:25;;;;;;;6.25;3.90;;;22.90;51.80;;;;;;4966955;28;20038;-75
2023/05/23 03:52:51;;;;;;;7.18;3.85;;;22.90;51.80;;;;;;4938950;29;20067;-76
2023/05/23 03:55:21;;;;;;;8.52;4.10;;;22.90;51.70;;;;;;4956154;29;20039;-76
2023/05/23 03:57:53;;;;;;;6.90;4.32;;;22.80;51.60;;;;;;4922931;29;20035;-76
2023/05/23 04:00:19;;;;;;;7.88;4.03;;;22.80;51.60;;;;;;4951610;29;20106;-75
2023/05/23 04:02:50;;;;;;;6.55;4.68;;;22.80;51.60;;;;;;4951515;28;20087;-75
2023/05/23 04:05:18;;;;;;;8.07;4.28;;;22.80;51.50;;;;;;4941640;29;20035;-75
2023/05/23 04:07:45;;;;;;;6.15;3.83;;;22.80;51.40;;;;;;4938600;29;20035;-75
2023/05/23 04:10:11;;;;;;;11.30;4.70;;;22.80;51.40;;;;;;4938381;29;20054;-76
2023/05/23 04:12:40;;;;;;;8.38;4.32;;;22.80;51.30;;;;;;4955385;28;20524;-76
2023/05/23 04:15:11;;;;;;;7.38;4.63;;;22.80;51.40;;;;;;4938048;29;20042;-76
2023/05/23 04:17:48;;;;;;;7.75;4.20;;;22.80;51.20;;;;;;4938321;29;20051;-76
2023/05/23 04:20:14;;;;;;;11.32;4.15;;;22.90;51.20;;;;;;4938243;29;20460;-75
2023/05/23 04:22:40;;;;;;;10.40;5.18;;;22.90;51.10;;;;;;4938588;29;20494;-75
2023/05/23 04:25:06;;;;;;;6.75;4.13;;;22.90;51.20;;;;;;4938759;29;20028;-76
2023/05/23 04:27:39;;;;;;;9.65;4.18;;;22.90;51.20;;;;;;4938088;29;20061;-75
2023/05/23 04:30:08;;;;;;;11.05;4.32;;;22.90;51.10;;;;;;4937845;29;20370;-75
2023/05/23 04:32:34;;;;;;;7.78;4.13;;;22.80;51.10;;;;;;4954321;29;20114;-75
2023/05/23 04:35:03;;;;;;;9.40;4.25;;;22.80;51.00;;;;;;4954172;29;20478;-76
2023/05/23 04:37:31;;;;;;;7.05;4.40;;;22.80;51.00;;;;;;4937307;29;20106;-76
2023/05/23 04:39:58;;;;;;;12.32;5.43;;;22.80;50.90;;;;;;4938303;29;20106;-76
2023/05/23 04:42:43;;;;;;;8.13;4.50;;;22.80;50.90;;;;;;4924672;29;20035;-75
2023/05/23 04:45:23;;;;;;;8.32;4.80;;;22.80;51.00;;;;;;4951960;28;20039;-76
2023/05/23 04:47:59;;;;;;;10.40;4.30;;;22.80;50.90;;;;;;4969556;28;20059;-75
2023/05/23 04:50:36;;;;;;;8.95;4.20;;;22.80;50.90;;;;;;4938102;29;20035;-75
2023/05/23 04:53:03;;;;;;;8.20;4.25;;;22.80;50.90;;;;;;4937590;29;20047;-76
2023/05/23 04:55:29;;;;;;;18.67;5.15;;;22.80;50.90;;;;;;4937805;29;20034;-75
2023/05/23 04:57:55;;;;;;;8.43;4.35;;;22.80;50.90;;;;;;4937303;29;20026;-76
2023/05/23 05:00:21;;;;;;;8.68;4.30;;;22.80;50.90;;;;;;4937514;29;20061;-76
2023/05/23 05:02:47;;;;;;;11.18;4.50;;;22.80;50.80;;;;;;4937764;29;20027;-76
2023/05/23 05:05:12;;;;;;;7.60;4.35;;;22.80;50.80;;;;;;4968950;28;20501;-76
2023/05/23 05:07:39;;;;;;;9.35;4.40;;;22.80;50.80;;;;;;4969376;28;20050;-75
2023/05/23 05:10:06;;;;;;;10.48;4.97;;;22.80;50.80;;;;;;4969085;28;20558;-75
2023/05/23 05:12:33;;;;;;;8.88;4.47;;;22.80;50.70;;;;;;4937458;29;20042;-75
2023/05/23 05:14:59;;;;;;;7.65;4.57;;;22.80;50.80;;;;;;4937320;29;20027;-75
2023/05/23 05:17:28;;;;;;;9.90;4.65;;;22.80;50.80;;;;;;4937147;29;20106;-75
2023/05/23 05:20:07;;;;;;;9.50;4.70;;;22.80;50.80;;;;;;4937564;29;20034;-75
2023/05/23 05:22:35;;;;;;;10.45;4.32;;;22.80;50.80;;;;;;4937274;29;20027;-75
2023/05/23 05:25:02;;;;;;;11.43;4.82;;;22.80;50.80;;;;;;4936255;29;20035;-75
2023/05/23 05:27:28;;;;;;;12.82;5.05;;;22.80;50.70;;;;;;4936794;29;20042;-75
2023/05/23 05:30:03;;;;;;;9.68;4.80;;;22.80;50.80;;;;;;4937502;29;20042;-76
2023/05/23 05:32:32;;;;;;;10.75;5.10;;;22.80;50.70;;;;;;4954223;28;20375;-76
2023/05/23 05:34:59;;;;;;;9.45;5.15;;;22.80;50.60;;;;;;4937118;29;20031;-76
2023/05/23 05:37:27;;;;;;;8.25;4.88;;;22.80;50.60;;;;;;4936308;29;20035;-76
2023/05/23 05:39:54;;;;;;;8.95;4.70;;;22.80;50.60;;;;;;4936876;29;20047;-76
2023/05/23 05:42:21;;;;;;;11.48;5.35;;;22.80;50.60;;;;;;4937047;29;20031;-75
2023/05/23 05:44:48;;;;;;;9.98;5.45;;;22.80;50.60;;;;;;4936570;29;20113;-76
2023/05/23 05:47:15;;;;;;;9.93;4.38;;;22.80;50.70;;;;;;4936554;29;20466;-75
2023/05/23 05:49:41;;;;;;;7.65;4.80;;;22.80;50.60;;;;;;4936689;29;20512;-74
2023/05/23 05:52:08;;;;;;;10.43;4.80;;;22.80;50.60;;;;;;4936724;29;20486;-75
2023/05/23 05:54:34;;;;;;;7.60;4.70;;;22.80;50.70;;;;;;4968271;28;20038;-75
2023/05/23 05:57:00;;;;;;;7.53;4.45;;;22.80;50.60;;;;;;4953737;28;20031;-74
2023/05/23 05:59:26;;;;;;;9.13;4.72;;;22.80;50.60;;;;;;4936658;29;20028;-75
2023/05/23 06:01:54;;;;;;;9.63;5.00;;;22.80;50.60;;;;;;4936590;29;20074;-75
2023/05/23 06:04:20;;;;;;;7.10;4.22;;;22.80;50.60;;;;;;4968488;28;20031;-75
2023/05/23 06:06:46;;;;;;;8.65;4.65;;;22.80;50.60;;;;;;4951958;29;20043;-75
2023/05/23 06:09:12;;;;;;;9.93;4.90;;;22.80;50.60;;;;;;4952340;29;20039;-75
2023/05/23 06:11:39;;;;;;;8.15;4.53;;;22.80;50.70;;;;;;4936372;29;20485;-75
2023/05/23 06:14:06;;;;;;;6.53;4.32;;;22.80;50.60;;;;;;4936574;29;20301;-75
2023/05/23 06:16:35;;;;;;;9.77;4.50;;;22.80;50.60;;;;;;4936178;29;20038;-75
2023/05/23 06:19:01;;;;;;;9.88;4.53;;;22.80;50.70;;;;;;4936347;29;20028;-74
2023/05/23 06:21:28;;;;;;;12.05;4.38;;;22.80;50.60;;;;;;4936237;29;20487;-75
2023/05/23 06:23:54;;;;;;;13.00;5.03;;;22.80;50.60;;;;;;4935945;29;20046;-75
2023/05/23 06:26:20;;;;;;;8.07;4.40;;;22.80;50.60;;;;;;4936067;29;20031;-75
2023/05/23 06:28:45;;;;;;;8.90;4.57;;;22.80;50.70;;;;;;4935826;29;20043;-75
2023/05/23 06:31:11;;;;;;;8.88;4.82;;;22.80;50.70;;;;;;4953363;28;20386;-75
2023/05/23 06:33:37;;;;;;;9.80;4.50;;;22.80;50.80;;;;;;4936261;29;20069;-75
2023/05/23 06:36:03;;;;;;;11.00;4.63;;;22.70;50.70;;;;;;4935976;29;20023;-75
2023/05/23 06:38:34;;;;;;;9.05;4.63;;;22.80;50.80;;;;;;4936089;29;20031;-74
2023/05/23 06:41:01;;;;;;;10.98;4.82;;;22.80;50.70;;;;;;4935193;28;20034;-75
2023/05/23 06:43:28;;;;;;;10.63;4.72;;;22.80;50.80;;;;;;4934883;29;20015;-75
2023/05/23 06:46:02;;;;;;;10.43;4.72;;;22.80;50.90;;;;;;4935092;29;20086;-74
2023/05/23 06:48:29;;;;;;;11.73;4.60;;;22.80;50.90;;;;;;4935518;29;20023;-76
2023/05/23 06:50:55;;;;;;;11.73;4.90;;;22.80;50.90;;;;;;4935393;28;20028;-75
2023/05/23 06:53:22;;;;;;;11.75;5.50;;;22.80;51.00;;;;;;4967997;28;20035;-76
2023/05/23 06:55:49;;;;;;;14.43;5.55;;;22.70;50.90;;;;;;4967645;28;20071;-75
2023/05/23 06:58:17;;;;;;;12.57;5.28;;;22.80;51.00;;;;;;4952815;28;20039;-75
2023/05/23 07:00:43;;;;;;;10.32;5.25;;;22.80;51.00;;;;;;4968137;28;20049;-76
2023/05/23 07:03:18;;;;;;;10.65;5.38;;;22.80;51.10;;;;;;4935916;29;20050;-76
2023/05/23 07:05:44;;;;;;;11.10;5.38;;;22.80;51.10;;;;;;4967827;28;20031;-75
2023/05/23 07:08:11;;;;;;;19.40;6.25;;;22.80;51.00;;;;;;4935557;29;20102;-76
2023/05/23 07:10:40;;;;;;;13.02;6.20;;;22.80;51.10;;;;;;4967603;28;20572;-75
2023/05/23 07:13:16;;;;;;;;;;;22.80;51.10;;;;;;4936303;29;20035;-75
2023/05/23 07:15:43;;;;;;;13.57;5.90;;;22.80;51.00;;;;;;4935557;29;20009;-76
2023/05/23 07:18:12;;;;;;;13.95;5.68;;;22.90;51.10;;;;;;4967520;28;20529;-75
2023/05/23 07:20:38;;;;;;;14.23;6.07;;;22.80;51.10;;;;;;4935548;29;20035;-75
2023/05/23 07:23:33;;;;;;;12.18;5.47;;;22.80;51.20;;;;;;4950484;28;20798;-75
2023/05/23 07:26:00;;;;;;;12.10;5.35;;;22.80;51.20;;;;;;4936049;29;20054;-75
2023/05/23 07:28:27;;;;;;;12.93;6.45;;;22.80;51.30;;;;;;4935361;29;20035;-75
2023/05/23 07:30:56;;;;;;;12.43;6.03;;;22.80;51.30;;;;;;4935678;28;20031;-75
2023/05/23 07:33:23;;;;;;;14.23;6.07;;;22.80;51.40;;;;;;4929524;29;20389;-76
2023/05/23 07:35:50;;;;;;;15.48;5.95;;;22.80;51.30;;;;;;4936530;28;20568;-76
2023/05/23 07:38:15;;;;;;;11.30;5.32;;;22.80;51.30;;;;;;4930918;28;20020;-75
2023/05/23 07:40:41;;;;;;;16.02;6.28;;;22.90;51.90;;;;;;4948759;28;20135;-72
2023/05/23 07:43:07;;;;;;;10.35;5.25;;;22.90;51.20;;;;;;4948916;28;20094;-73
2023/05/23 07:45:33;;;;;;;17.30;5.80;;;22.90;50.90;;;;;;4948831;29;20103;-73
2023/05/23 07:48:01;;;;;;;14.40;5.43;;;22.90;51.30;;;;;;4933589;29;20078;-73
2023/05/23 07:50:27;;;;;;;19.58;5.57;;;22.90;50.90;;;;;;4936703;29;20471;-75
2023/05/23 07:52:57;;;;;;;23.20;5.80;;;22.90;50.50;;;;;;4952556;29;20050;-72
2023/05/23 07:55:31;;;;;;;21.35;5.55;;;22.90;50.40;;;;;;4936559;28;20027;-73
2023/05/23 07:57:58;;;;;;;;;;;22.90;50.80;;;;;;4928073;29;20028;-74
2023/05/23 08:00:26;;;;;;;18.67;5.30;;;22.90;51.20;;;;;;4961714;28;19957;-74
2023/05/23 08:02:57;;;;;;;21.15;5.28;;;23.00;51.20;;;;;;4969102;28;20035;-74
2023/05/23 08:05:30;;;;;;;28.50;6.35;;;23.00;52.60;;;;;;4936602;29;20035;-70
2023/05/23 08:07:56;;;;;;;15.43;5.93;;;23.00;51.70;;;;;;4936082;29;20663;-72
2023/05/23 08:10:24;;;;;;;15.45;4.97;;;23.10;51.30;;;;;;4936440;29;20031;-72
2023/05/23 08:12:52;;;;;;;16.47;4.37;;;23.00;51.60;;;;;;4936091;29;20494;-72
2023/05/23 08:15:19;;;;;;;14.68;5.63;;;23.00;50.80;;;;;;4952282;29;20067;-72
2023/05/23 08:17:50;;;;;;;15.63;5.32;;;23.00;51.00;;;;;;4936200;29;20039;-72
2023/05/23 08:20:16;;;;;;;15.35;4.53;;;23.00;50.70;;;;;;4936655;29;20478;-72
2023/05/23 08:22:45;;;;;;;11.65;4.75;;;23.00;50.80;;;;;;4936294;29;20602;-72
2023/05/23 08:25:11;;;;;;;15.30;5.32;;;23.10;51.10;;;;;;4936398;29;20525;-73
2023/05/23 08:27:39;;;;;;;12.27;4.85;;;23.00;51.00;;;;;;4936118;29;20028;-73
2023/05/23 08:30:21;;;;;;;10.10;4.43;;;23.10;51.00;;;;;;4936468;28;20413;-73
2023/05/23 08:32:47;;;;;;;12.35;4.47;;;23.10;50.80;;;;;;4952358;28;20035;-73
2023/05/23 08:35:13;;;;;;;11.85;4.82;;;23.10;51.30;;;;;;4951972;29;20038;-72
2023/05/23 08:37:40;;;;;;;12.85;5.22;;;23.20;51.50;;;;;;4967953;28;20034;-73
2023/05/23 08:40:09;;;;;;;12.57;5.10;;;23.20;50.80;;;;;;4936158;29;20038;-73
2023/05/23 08:42:42;;;;;;;9.57;5.30;;;23.20;51.20;;;;;;4968257;28;20035;-73
2023/05/23 08:45:09;;;;;;;11.50;4.88;;;23.20;51.30;;;;;;4935183;29;20398;-74
2023/05/23 08:47:42;;;;;;;18.52;5.38;;;23.20;51.30;;;;;;4935558;29;20035;-73
2023/05/23 08:50:17;;;;;;;10.27;5.40;;;23.30;51.50;;;;;;4935944;29;20066;-72
2023/05/23 08:52:44;;;;;;;11.45;4.75;;;23.20;51.20;;;;;;4935642;29;20036;-73
2023/05/23 08:55:11;;;;;;;11.90;5.03;;;23.20;51.90;;;;;;4935584;29;20508;-72
2023/05/23 08:57:42;;;;;;;9.70;4.95;;;23.20;51.90;;;;;;4935316;29;20031;-73
2023/05/23 09:00:24;;;;;;;11.50;5.13;;;23.20;52.60;;;;;;4934311;29;20397;-72
2023/05/23 09:02:50;;;;;;;14.45;5.38;;;23.20;52.30;;;;;;4935606;29;20489;-73
2023/05/23 09:05:37;;;;;;;10.35;4.80;;;23.20;52.10;;;;;;4935538;29;20451;-73
2023/05/23 09:08:03;;;;;;;14.40;5.05;;;23.20;52.20;;;;;;4934994;29;20374;-73
2023/05/23 09:10:29;;;;;;;11.68;5.13;;;23.20;52.20;;;;;;4935393;29;20446;-73
2023/05/23 09:12:55;;;;;;;12.52;5.07;;;23.20;52.50;;;;;;4935272;29;20035;-73
2023/05/23 09:15:24;;;;;;;9.13;4.53;;;23.20;52.50;;;;;;4934775;29;20049;-73
2023/05/23 09:17:50;;;;;;;11.43;4.47;;;23.20;52.90;;;;;;4950931;29;20031;-73
2023/05/23 09:20:17;;;;;;;12.60;4.90;;;23.20;52.80;;;;;;4935115;29;20089;-73
2023/05/23 09:22:50;;;;;;;9.07;4.57;;;23.20;53.20;;;;;;4935197;29;20094;-73
2023/05/23 09:25:17;;;;;;;10.40;4.35;;;23.20;53.20;;;;;;4966758;28;20023;-73
2023/05/23 09:27:44;;;;;;;6.68;4.40;;;23.20;53.30;;;;;;4934948;29;20038;-73
2023/05/23 09:30:11;;;;;;;11.27;4.70;;;23.20;53.30;;;;;;4966991;28;20035;-73
2023/05/23 09:32:38;;;;;;;10.55;4.53;;;23.20;53.50;;;;;;4967096;28;20106;-73
2023/05/23 09:35:07;;;;;;;12.05;4.85;;;23.20;53.50;;;;;;4935035;29;20042;-73
2023/05/23 09:37:46;;;;;;;8.98;4.50;;;23.20;53.70;;;;;;4934568;29;20037;-73
2023/05/23 09:40:13;;;;;;;12.80;4.78;;;23.20;53.60;;;;;;4919272;29;20376;-73
2023/05/23 09:42:45;;;;;;;9.40;5.43;;;23.20;53.70;;;;;;4932423;29;20537;-73
2023/05/23 09:45:12;;;;;;;12.80;4.65;;;23.20;54.00;;;;;;4950065;28;20027;-72
2023/05/23 09:47:38;;;;;;;12.27;5.15;;;23.20;54.00;;;;;;4949532;28;20093;-72
2023/05/23 09:50:05;;;;;;;10.13;4.65;;;23.20;53.90;;;;;;4932579;29;20445;-72
2023/05/23 09:52:37;;;;;;;11.90;4.80;;;23.20;54.10;;;;;;4931896;29;20031;-73
2023/05/23 09:55:05;;;;;;;9.00;4.93;;;23.20;54.10;;;;;;4961514;28;20114;-73
2023/05/23 09:57:34;;;;;;;11.80;5.10;;;23.20;54.20;;;;;;4949775;29;20038;-72
2023/05/23 10:00:04;;;;;;;14.50;5.27;;;23.20;54.30;;;;;;4949934;29;20524;-72
2023/05/23 10:03:00;;;;;;;9.48;5.20;;;23.20;54.40;;;;;;4946981;28;20031;-72
2023/05/23 10:05:45;;;;;;;15.15;5.35;;;23.10;54.30;;;;;;4949309;29;20035;-72
2023/05/23 10:08:19;;;;;;;12.30;5.25;;;23.20;54.40;;;;;;4949222;29;20035;-73
2023/05/23 10:10:57;;;;;;;11.02;4.95;;;23.10;54.70;;;;;;4932212;28;20078;-72
2023/05/23 10:13:28;;;;;;;9.38;5.30;;;23.20;54.70;;;;;;4949861;29;20039;-73
2023/05/23 10:16:08;;;;;;;8.57;4.82;;;23.10;54.80;;;;;;4949354;29;20414;-72
2023/05/23 10:18:42;;;;;;;12.00;5.40;;;23.10;54.90;;;;;;4930275;29;20034;-72
2023/05/23 10:21:14;;;;;;;14.23;5.50;;;23.20;55.10;;;;;;4949794;28;20048;-73
2023/05/23 10:23:41;;;;;;;11.43;5.30;;;23.10;55.20;;;;;;4932309;29;20035;-73
2023/05/23 10:26:07;;;;;;;15.02;5.40;;;23.10;55.50;;;;;;4949671;29;20055;-73
2023/05/23 10:28:33;;;;;;;13.48;5.00;;;23.10;55.30;;;;;;4948838;29;20059;-73
2023/05/23 10:30:59;;;;;;;11.73;5.88;;;23.10;55.40;;;;;;4949343;28;20102;-73
2023/05/23 10:33:30;;;;;;;9.98;5.10;;;23.10;55.50;;;;;;4949858;29;20477;-73
2023/05/23 10:36:06;;;;;;;15.60;6.05;;;23.20;55.60;;;;;;4949626;29;20067;-73
2023/05/23 10:38:40;;;;;;;44.83;6.82;;;23.10;56.10;;;;;;4948970;29;20114;-73
2023/05/23 10:41:12;;;;;;;12.93;6.70;;;23.20;56.20;;;;;;4949454;28;20360;-73
2023/05/23 10:43:48;;;;;;;10.00;5.57;;;23.20;56.10;;;;;;4949436;29;20031;-73
2023/05/23 10:46:14;;;;;;;16.30;6.32;;;23.20;56.10;;;;;;4932111;29;20085;-73
2023/05/23 10:48:41;;;;;;;13.88;6.30;;;23.20;56.40;;;;;;4949198;29;20043;-73
2023/05/23 10:51:09;;;;;;;12.32;6.60;;;23.10;56.60;;;;;;4949484;28;20046;-73
2023/05/23 10:53:39;;;;;;;11.05;6.18;;;23.20;56.80;;;;;;4928987;29;20043;-74
2023/05/23 10:56:07;;;;;;;10.73;6.07;;;23.20;57.60;;;;;;4959743;28;20434;-73
2023/05/23 10:58:35;;;;;;;14.23;6.55;;;23.20;57.20;;;;;;4949570;29;20344;-73
2023/05/23 11:01:06;;;;;;;14.10;6.45;;;23.10;57.40;;;;;;4949117;28;20398;-72
2023/05/23 11:03:45;;;;;;;10.70;6.15;;;23.20;57.60;;;;;;4948869;29;20031;-73
2023/05/23 11:06:41;;;;;;;10.05;6.90;;;23.10;57.80;;;;;;4948769;29;20035;-73
2023/05/23 11:09:19;;;;;;;10.35;6.22;;;23.10;58.00;;;;;;4931558;29;20062;-73
2023/05/23 11:12:06;;;;;;;9.32;6.22;;;23.10;58.10;;;;;;4932672;29;20420;-73
2023/05/23 11:14:36;;;;;;;10.02;6.78;;;23.10;58.30;;;;;;4949290;29;20032;-73
2023/05/23 11:17:11;;;;;;;11.25;7.13;;;23.10;58.40;;;;;;4931333;29;20039;-73
2023/05/23 11:19:38;;;;;;;13.23;7.03;;;23.10;58.50;;;;;;4948729;29;20031;-74
2023/05/23 11:22:08;;;;;;;13.45;7.15;;;23.10;58.50;;;;;;4931097;28;20393;-73
2023/05/23 11:24:56;;;;;;;11.93;7.85;;;23.10;58.70;;;;;;4949300;28;20051;-73
2023/05/23 11:27:34;;;;;;;12.40;9.02;;;23.10;58.90;;;;;;4948991;28;20039;-73
2023/05/23 11:30:00;;;;;;;10.98;7.97;;;23.10;58.90;;;;;;4951598;28;20034;-73
2023/05/23 11:32:29;;;;;;;13.82;8.32;;;23.10;59.40;;;;;;4953124;28;20087;-73
2023/05/23 11:34:55;;;;;;;12.70;8.43;;;23.10;59.30;;;;;;4953044;29;20035;-72
2023/05/23 11:37:22;;;;;;;21.80;9.27;;;23.10;59.90;;;;;;4951621;29;20478;-72
2023/05/23 11:39:48;;;;;;;16.08;8.90;;;23.10;59.80;;;;;;4952986;29;20023;-72
2023/05/23 11:42:14;;;;;;;15.40;8.27;;;23.10;59.60;;;;;;4952518;28;20019;-72
2023/05/23 11:44:40;;;;;;;18.15;8.20;;;23.10;59.60;;;;;;4935024;29;20098;-72
2023/05/23 11:47:07;;;;;;;14.73;8.25;;;23.10;59.60;;;;;;4919416;29;20031;-72
2023/05/23 11:49:37;;;;;;;21.13;8.82;;;23.10;59.60;;;;;;4949778;29;20043;-73
2023/05/23 11:52:08;;;;;;;17.45;8.13;;;23.10;59.70;;;;;;4951510;28;20525;-73
2023/05/23 11:54:33;;;;;;;16.23;8.48;;;23.10;59.70;;;;;;4952758;29;20035;-73
2023/05/23 11:57:01;;;;;;;14.82;8.25;;;23.10;59.80;;;;;;4952185;29;20036;-73
2023/05/23 11:59:27;;;;;;;14.13;8.00;;;23.10;59.70;;;;;;4951361;29;20042;-71
2023/05/23 12:01:54;;;;;;;16.95;8.23;;;23.20;59.70;;;;;;4951376;28;20028;-72
2023/05/23 12:04:19;;;;;;;16.90;9.18;;;23.20;59.70;;;;;;4932440;29;20573;-71
2023/05/23 12:06:47;;;;;;;15.73;8.57;;;23.20;60.40;;;;;;4934480;29;20449;-71
2023/05/23 12:09:14;;;;;;;12.95;9.00;;;23.20;60.00;;;;;;4934605;29;20082;-71
2023/05/23 12:11:41;;;;;;;20.35;9.05;;;23.20;59.90;;;;;;4952051;28;20043;-71
2023/05/23 12:14:08;;;;;;;17.08;8.45;;;23.20;59.90;;;;;;4934568;29;20564;-72
2023/05/23 12:16:35;;;;;;;17.35;8.82;;;23.20;60.00;;;;;;4949978;29;20167;-72
2023/05/23 12:19:02;;;;;;;14.25;8.48;;;23.20;60.10;;;;;;4951057;29;20038;-72
2023/05/23 12:21:42;;;;;;;12.05;8.07;;;23.20;59.80;;;;;;4944047;28;20489;-72
2023/05/23 12:24:14;;;;;;;14.57;8.95;;;23.10;59.90;;;;;;4951957;29;20150;-72
2023/05/23 12:26:54;;;;;;;16.50;9.10;;;23.20;59.70;;;;;;4952149;29;20039;-72
2023/05/23 12:29:26;;;;;;;16.25;8.55;;;23.20;59.80;;;;;;4950108;29;20511;-73
2023/05/23 12:31:52;;;;;;;17.20;9.30;;;23.20;59.90;;;;;;4934533;29;20035;-71
2023/05/23 12:34:21;;;;;;;12.80;8.55;;;23.20;59.60;;;;;;4950882;28;20031;-72
2023/05/23 12:36:48;;;;;;;14.63;9.25;;;23.20;59.70;;;;;;4959207;28;20110;-72
2023/05/23 12:39:14;;;;;;;12.35;8.52;;;23.20;59.70;;;;;;4951144;29;20568;-72
2023/05/23 12:41:42;;;;;;;14.88;9.15;;;23.20;59.50;;;;;;4933723;29;20397;-72
2023/05/23 12:44:08;;;;;;;18.92;8.75;;;23.20;59.60;;;;;;4951612;29;20056;-72
2023/05/23 12:46:34;;;;;;;25.20;8.68;;;23.20;59.60;;;;;;4951380;29;20058;-72
2023/05/23 12:48:59;;;;;;;14.23;9.02;;;23.20;59.60;;;;;;4950973;29;20035;-72
2023/05/23 12:51:25;;;;;;;15.23;8.50;;;23.20;59.70;;;;;;4951049;28;20059;-72
2023/05/23 12:53:51;;;;;;;14.45;8.35;;;23.20;59.60;;;;;;4951696;29;20297;-72
2023/05/23 12:56:17;;;;;;;16.52;8.15;;;23.20;59.70;;;;;;4951041;29;20039;-72
2023/05/23 12:58:43;;;;;;;18.70;8.45;;;23.20;59.70;;;;;;4950470;29;20027;-73